createdAt,value
2022-09-11T00:00:12.282Z,4.30
2022-09-11T00:04:04.877Z,4.10
2022-09-11T00:08:09.782Z,5.93
2022-09-11T00:12:07.444Z,8.98
2022-09-11T00:15:51.526Z,5.15
2022-09-11T00:19:35.661Z,7.60
2022-09-11T00:23:24.943Z,12.23
2022-09-11T00:27:07.018Z,8.40
2022-09-11T00:31:01.655Z,8.43
2022-09-11T00:34:44.740Z,6.70
2022-09-11T00:38:32.538Z,8.50
2022-09-11T00:42:14.329Z,6.30
2022-09-11T00:46:03.649Z,10.18
2022-09-11T00:49:51.239Z,7.63
2022-09-11T00:53:36.367Z,7.15
2022-09-11T00:57:21.880Z,9.57
2022-09-11T01:01:04.195Z,6.72
2022-09-11T01:04:46.037Z,7.85
2022-09-11T01:08:27.938Z,9.52
2022-09-11T01:12:19.695Z,6.90
2022-09-11T01:16:32.859Z,7.78
2022-09-11T01:20:27.090Z,4.88
2022-09-11T01:24:39.933Z,5.35
2022-09-11T01:28:49.147Z,6.20
2022-09-11T01:32:35.628Z,4.88
2022-09-11T01:36:28.935Z,5.07
2022-09-11T01:40:29.997Z,11.38
2022-09-11T01:44:21.549Z,5.22
2022-09-11T01:48:04.912Z,6.65
2022-09-11T01:51:50.330Z,5.35
2022-09-11T01:55:39.414Z,5.53
2022-09-11T01:59:28.032Z,5.20
2022-09-11T02:03:21.159Z,8.65
2022-09-11T02:07:19.545Z,3.97
2022-09-11T02:11:07.379Z,4.05
2022-09-11T02:14:53.422Z,6.35
2022-09-11T02:18:47.552Z,4.72
2022-09-11T02:22:31.207Z,4.13
2022-09-11T02:26:14.163Z,4.13
2022-09-11T02:29:56.384Z,6.13
2022-09-11T02:33:38.378Z,6.38
2022-09-11T02:37:25.676Z,5.60
2022-09-11T02:41:15.259Z,4.13
2022-09-11T02:45:29.117Z,8.48
2022-09-11T02:58:05.780Z,5.20
2022-09-11T03:02:26.327Z,4.93
2022-09-11T03:06:21.863Z,4.40
2022-09-11T03:10:26.648Z,4.65
2022-09-11T03:14:08.615Z,7.47
2022-09-11T03:18:51.435Z,6.22
2022-09-11T03:27:44.023Z,4.95
2022-09-11T03:44:13.931Z,5.40
2022-09-11T03:47:55.878Z,4.70
2022-09-11T03:51:37.997Z,6.80
2022-09-11T03:55:20.042Z,5.60
2022-09-11T03:59:01.891Z,8.32
2022-09-11T04:03:15.803Z,7.45
2022-09-11T04:10:42.541Z,6.28
2022-09-11T04:14:24.544Z,4.30
2022-09-11T04:18:07.660Z,7.88
2022-09-11T04:21:49.452Z,8.82
2022-09-11T04:25:31.608Z,6.32
2022-09-11T04:29:13.444Z,4.15
2022-09-11T04:32:55.590Z,7.65
2022-09-11T04:36:37.574Z,6.65
2022-09-11T04:40:19.367Z,6.53
2022-09-11T04:44:05.222Z,5.95
2022-09-11T04:47:47.166Z,6.63
2022-09-11T04:51:34.880Z,4.75
2022-09-11T04:55:16.780Z,8.43
2022-09-11T04:59:09.597Z,7.47
2022-09-11T05:02:51.601Z,10.13
2022-09-11T05:06:33.415Z,13.68
2022-09-11T05:10:16.364Z,20.48
2022-09-11T05:14:01.503Z,26.05
2022-09-11T05:17:43.296Z,14.98
2022-09-11T05:21:26.359Z,20.60
2022-09-11T05:25:09.639Z,13.65
2022-09-11T05:28:55.818Z,16.95
2022-09-11T05:32:37.593Z,22.23
2022-09-11T05:36:19.403Z,27.05
2022-09-11T05:40:01.357Z,14.73
2022-09-11T05:43:43.764Z,16.73
2022-09-11T05:47:25.735Z,12.40
2022-09-11T05:51:14.727Z,13.60
2022-09-11T05:54:56.873Z,15.38
2022-09-11T05:58:38.699Z,14.27
2022-09-11T06:02:20.540Z,13.07
2022-09-11T06:06:04.176Z,10.45
2022-09-11T06:09:45.938Z,13.13
2022-09-11T06:13:34.043Z,8.77
2022-09-11T06:17:15.810Z,10.50
2022-09-11T06:21:01.836Z,11.55
2022-09-11T06:24:45.120Z,9.82
2022-09-11T06:28:26.897Z,10.93
2022-09-11T06:32:08.827Z,8.70
2022-09-11T06:36:01.551Z,11.88
2022-09-11T06:39:43.416Z,10.30
2022-09-11T06:43:25.447Z,14.45
2022-09-11T06:47:07.403Z,10.13
2022-09-11T06:50:49.231Z,12.25
2022-09-11T06:54:31.000Z,11.65
2022-09-11T06:58:12.786Z,16.85
2022-09-11T07:01:55.511Z,12.98
2022-09-11T07:05:37.414Z,11.68
2022-09-11T07:09:19.218Z,12.30
2022-09-11T07:13:01.167Z,11.75
2022-09-11T07:16:42.985Z,13.38
2022-09-11T07:20:25.250Z,14.98
2022-09-11T07:24:07.408Z,14.38
2022-09-11T07:27:51.904Z,15.02
2022-09-11T07:31:34.491Z,19.08
2022-09-11T07:35:21.398Z,19.33
2022-09-11T07:42:45.787Z,11.00
2022-09-11T07:46:27.716Z,13.80
2022-09-11T07:50:10.165Z,11.75
2022-09-11T07:53:52.785Z,12.57
2022-09-11T07:57:34.644Z,13.93
2022-09-11T08:01:22.039Z,13.30
2022-09-11T08:05:04.045Z,12.82
2022-09-11T08:08:45.936Z,11.40
2022-09-11T08:12:27.756Z,11.48
2022-09-11T08:16:09.750Z,11.82
2022-09-11T08:19:52.053Z,13.50
2022-09-11T08:23:34.107Z,9.98
2022-09-11T08:27:15.882Z,9.10
2022-09-11T08:30:59.151Z,8.50
2022-09-11T08:34:40.971Z,9.05
2022-09-11T08:38:22.979Z,12.38
2022-09-11T08:42:16.495Z,12.10
2022-09-11T08:46:05.519Z,10.45
2022-09-11T08:50:01.542Z,9.25
2022-09-11T08:53:45.560Z,13.50
2022-09-11T08:57:37.867Z,10.93
2022-09-11T09:01:26.224Z,13.23
2022-09-11T09:05:28.414Z,16.17
2022-09-11T09:09:13.650Z,12.13
2022-09-11T09:13:13.015Z,12.27
2022-09-11T09:17:08.408Z,9.85
2022-09-11T09:21:06.576Z,11.38
2022-09-11T09:24:55.133Z,10.77
2022-09-11T09:28:46.869Z,9.65
2022-09-11T09:32:42.206Z,9.60
2022-09-11T09:36:50.364Z,8.85
2022-09-11T09:40:35.102Z,6.95
2022-09-11T09:44:28.536Z,8.07
2022-09-11T09:48:11.938Z,6.70
2022-09-11T09:51:59.804Z,7.32
2022-09-11T09:55:45.119Z,7.20
2022-09-11T09:59:50.801Z,5.10
2022-09-11T10:03:33.696Z,4.22
2022-09-11T10:07:22.307Z,6.47
2022-09-11T10:11:26.791Z,4.32
2022-09-11T10:15:22.532Z,2.92
2022-09-11T10:19:04.331Z,3.42
2022-09-11T10:22:46.423Z,4.45
2022-09-11T10:26:28.424Z,3.85
2022-09-11T10:30:31.513Z,5.45
2022-09-11T10:34:17.219Z,5.05
2022-09-11T10:38:19.857Z,3.03
2022-09-11T10:42:08.231Z,5.60
2022-09-11T10:46:04.736Z,2.45
2022-09-11T10:49:47.254Z,2.10
2022-09-11T10:53:33.952Z,2.63
2022-09-11T10:57:34.167Z,2.60
2022-09-11T11:01:16.089Z,1.48
2022-09-11T11:05:06.229Z,2.22
2022-09-11T11:08:57.955Z,1.95
2022-09-11T11:13:14.566Z,1.10
2022-09-11T11:17:22.716Z,1.98
2022-09-11T11:21:13.254Z,2.38
2022-09-11T11:25:06.891Z,3.30
2022-09-11T11:28:51.721Z,1.38
2022-09-11T11:32:45.242Z,1.55
2022-09-11T11:36:37.966Z,1.30
2022-09-11T11:40:37.771Z,3.00
2022-09-11T11:44:33.492Z,2.03
2022-09-11T11:48:25.538Z,2.15
2022-09-11T11:52:16.750Z,2.33
2022-09-11T11:56:36.809Z,2.10
2022-09-11T12:00:19.142Z,1.95
2022-09-11T12:04:16.422Z,2.08
2022-09-11T12:07:58.497Z,1.77
2022-09-11T12:11:40.422Z,2.92
2022-09-11T12:15:30.228Z,1.52
2022-09-11T12:19:27.977Z,2.13
2022-09-11T12:24:05.027Z,3.00
2022-09-11T12:27:54.050Z,1.50
2022-09-11T12:31:51.314Z,0.90
2022-09-11T12:35:48.584Z,1.55
2022-09-11T12:39:39.246Z,1.45
2022-09-11T12:43:36.192Z,2.00
2022-09-11T12:47:39.851Z,1.48
2022-09-11T12:51:42.298Z,1.58
2022-09-11T12:55:32.451Z,1.50
2022-09-11T12:59:33.413Z,2.05
2022-09-11T13:03:26.240Z,2.22
2022-09-11T13:07:08.455Z,0.73
2022-09-11T13:10:50.700Z,1.08
2022-09-11T13:14:32.496Z,2.70
2022-09-11T13:18:32.040Z,1.17
2022-09-11T13:22:31.318Z,1.98
2022-09-11T13:26:27.197Z,1.65
2022-09-11T13:30:11.529Z,1.35
2022-09-11T13:33:53.611Z,0.88
2022-09-11T13:37:40.515Z,2.35
2022-09-11T13:41:26.103Z,0.60
2022-09-11T13:45:15.604Z,1.58
2022-09-11T13:49:10.397Z,1.55
2022-09-11T13:52:53.995Z,2.88
2022-09-11T13:57:01.735Z,0.80
2022-09-11T14:00:48.679Z,0.93
2022-09-11T14:04:32.975Z,1.40
2022-09-11T14:08:39.352Z,1.92
2022-09-11T14:12:21.140Z,2.00
2022-09-11T14:16:08.286Z,2.03
2022-09-11T14:19:52.424Z,1.08
2022-09-11T14:23:43.071Z,1.73
2022-09-11T14:27:31.411Z,1.23
2022-09-11T14:31:27.035Z,1.70
2022-09-11T14:35:10.428Z,1.60
2022-09-11T14:38:53.414Z,1.88
2022-09-11T14:42:36.857Z,1.25
2022-09-11T14:46:18.673Z,1.35
2022-09-11T14:50:00.845Z,3.70
2022-09-11T14:53:43.392Z,1.50
2022-09-11T14:57:30.665Z,1.25
2022-09-11T15:01:13.950Z,1.48
2022-09-11T15:04:57.751Z,1.95
2022-09-11T15:08:39.526Z,1.15
2022-09-11T15:12:22.268Z,2.30
2022-09-11T15:16:05.705Z,1.38
2022-09-11T15:19:49.792Z,2.15
2022-09-11T15:23:32.141Z,1.00
2022-09-11T15:27:14.995Z,0.82
2022-09-11T15:30:58.948Z,2.40
2022-09-11T15:34:42.082Z,3.13
2022-09-11T15:38:24.303Z,2.55
2022-09-11T15:42:07.465Z,2.33
2022-09-11T15:45:49.389Z,1.05
2022-09-11T15:49:31.785Z,0.57
2022-09-11T15:53:13.675Z,0.50
2022-09-11T15:56:55.812Z,1.52
2022-09-11T16:00:37.815Z,0.50
2022-09-11T16:04:21.975Z,1.33
2022-09-11T16:08:03.770Z,3.08
2022-09-11T16:11:47.863Z,1.17
2022-09-11T16:15:29.700Z,0.50
2022-09-11T16:19:11.527Z,2.58
2022-09-11T16:22:54.701Z,2.90
2022-09-11T16:26:38.336Z,1.08
2022-09-11T16:30:42.196Z,0.75
2022-09-11T16:34:21.920Z,3.78
2022-09-11T16:38:04.922Z,2.13
2022-09-11T16:41:46.842Z,1.60
2022-09-11T16:45:28.754Z,3.17
2022-09-11T16:49:15.555Z,1.95
2022-09-11T16:52:57.372Z,2.30
2022-09-11T16:56:42.723Z,2.03
2022-09-11T17:00:28.966Z,3.47
2022-09-11T17:04:10.761Z,1.70
2022-09-11T17:07:52.595Z,2.03
2022-09-11T17:11:36.354Z,1.65
2022-09-11T17:15:19.484Z,2.08
2022-09-11T17:19:01.817Z,5.60
2022-09-11T17:22:43.599Z,3.40
2022-09-11T17:26:25.424Z,3.08
2022-09-11T17:30:07.819Z,3.97
2022-09-11T17:33:49.727Z,2.38
2022-09-11T17:37:31.541Z,4.70
2022-09-11T17:41:13.403Z,2.63
2022-09-11T17:44:56.175Z,3.10
2022-09-11T17:48:39.742Z,3.00
2022-09-11T17:52:21.651Z,2.88
2022-09-11T17:56:06.285Z,5.00
2022-09-11T17:59:50.325Z,1.73
2022-09-11T18:03:33.574Z,2.80
2022-09-11T18:07:16.008Z,3.83
2022-09-11T18:11:00.479Z,8.57
2022-09-11T18:14:45.271Z,8.20
2022-09-11T18:18:27.492Z,5.68
2022-09-11T18:22:10.067Z,8.38
2022-09-11T18:25:51.912Z,4.50
2022-09-11T18:29:35.216Z,4.57
2022-09-11T18:33:17.085Z,6.75
2022-09-11T18:36:59.958Z,3.97
2022-09-11T18:40:41.885Z,3.92
2022-09-11T18:44:25.322Z,3.40
2022-09-11T18:48:07.165Z,4.07
2022-09-11T18:51:49.385Z,3.70
2022-09-11T18:55:31.219Z,4.28
2022-09-11T18:59:13.908Z,4.32
2022-09-11T19:03:00.223Z,3.42
2022-09-11T19:06:42.256Z,3.58
2022-09-11T19:10:24.099Z,3.33
2022-09-11T19:14:10.901Z,7.65
2022-09-11T19:17:55.272Z,4.80
2022-09-11T19:21:38.431Z,4.15
2022-09-11T19:25:20.550Z,2.92
2022-09-11T19:29:02.567Z,4.95
2022-09-11T19:32:44.407Z,3.97
2022-09-11T19:36:28.247Z,8.05
2022-09-11T19:40:10.263Z,3.13
2022-09-11T19:43:54.124Z,6.13
2022-09-11T19:47:36.304Z,6.45
2022-09-11T19:51:23.042Z,5.25
2022-09-11T19:55:05.111Z,3.38
2022-09-11T19:58:46.891Z,3.90
2022-09-11T20:02:28.677Z,4.25
2022-09-11T20:06:12.072Z,2.30
2022-09-11T20:09:53.839Z,6.47
2022-09-11T20:13:35.839Z,6.22
2022-09-11T20:17:17.871Z,6.38
2022-09-11T20:21:04.767Z,2.42
2022-09-11T20:24:46.691Z,5.25
2022-09-11T20:28:28.473Z,7.07
2022-09-11T20:32:13.098Z,3.00
2022-09-11T20:35:54.919Z,4.78
2022-09-11T20:39:36.810Z,5.13
2022-09-11T20:43:18.671Z,4.90
2022-09-11T20:47:00.605Z,3.55
2022-09-11T20:50:42.500Z,7.07
2022-09-11T20:54:24.273Z,3.72
2022-09-11T20:58:06.236Z,5.70
2022-09-11T21:01:49.379Z,3.63
2022-09-11T21:05:31.188Z,7.88
2022-09-11T21:09:13.093Z,5.38
2022-09-11T21:12:55.344Z,7.68
2022-09-11T21:16:37.516Z,6.18
2022-09-11T21:20:19.377Z,5.07
2022-09-11T21:24:04.096Z,5.75
2022-09-11T21:27:48.248Z,5.38
2022-09-11T21:31:30.505Z,8.52
2022-09-11T21:35:12.533Z,7.15
2022-09-11T21:38:54.355Z,8.90
2022-09-11T21:42:36.151Z,9.38
2022-09-11T21:46:18.007Z,10.20
2022-09-11T21:49:59.933Z,10.05
2022-09-11T21:53:44.032Z,9.75
2022-09-11T21:57:28.920Z,9.70
2022-09-11T22:01:10.824Z,10.00
2022-09-11T22:04:53.172Z,8.38
2022-09-11T22:08:35.503Z,8.07
2022-09-11T22:12:17.427Z,10.07
2022-09-11T22:16:00.433Z,10.25
2022-09-11T22:19:45.928Z,11.40
2022-09-11T22:23:29.881Z,9.68
2022-09-11T22:27:12.491Z,7.40
2022-09-11T22:30:54.933Z,8.73
2022-09-11T22:34:38.042Z,9.30
2022-09-11T22:38:19.927Z,9.38
2022-09-11T22:42:01.741Z,10.18
2022-09-11T22:45:50.657Z,9.43
2022-09-11T22:49:32.591Z,9.38
2022-09-11T22:53:14.504Z,10.50
2022-09-11T22:56:56.460Z,10.65
2022-09-11T23:00:39.165Z,8.90
2022-09-11T23:04:21.007Z,12.50
2022-09-11T23:08:03.102Z,11.07
2022-09-11T23:11:45.860Z,10.85
2022-09-11T23:15:28.275Z,9.70
2022-09-11T23:19:12.830Z,11.43
2022-09-11T23:22:54.938Z,10.25
2022-09-11T23:26:36.911Z,10.68
2022-09-11T23:30:18.744Z,13.07
2022-09-11T23:34:02.831Z,11.80
2022-09-11T23:37:45.573Z,10.10
2022-09-11T23:41:28.433Z,9.63
2022-09-11T23:45:12.772Z,11.38
2022-09-11T23:48:54.662Z,11.65
2022-09-11T23:52:36.709Z,13.40
2022-09-11T23:56:19.448Z,12.90
